createdAt,value
2023-03-16T00:00:54.770Z,13.57
2023-03-16T00:03:22.678Z,11.70
2023-03-16T00:05:52.298Z,16.83
2023-03-16T00:08:20.421Z,15.90
2023-03-16T00:10:48.540Z,16.30
2023-03-16T00:13:19.659Z,11.50
2023-03-16T00:15:58.894Z,11.90
2023-03-16T00:18:28.906Z,14.13
2023-03-16T00:21:04.230Z,16.53
2023-03-16T00:23:36.126Z,18.20
2023-03-16T00:26:07.305Z,13.00
2023-03-16T00:28:36.276Z,13.57
2023-03-16T00:31:06.050Z,14.30
2023-03-16T00:33:35.391Z,11.33
2023-03-16T00:36:11.332Z,14.43
2023-03-16T00:38:45.267Z,21.77
2023-03-16T00:41:15.066Z,16.43
2023-03-16T00:43:45.496Z,15.40
2023-03-16T00:46:16.194Z,14.93
2023-03-16T00:48:46.727Z,17.67
2023-03-16T00:51:17.869Z,15.60
2023-03-16T00:53:46.728Z,13.17
2023-03-16T00:56:14.617Z,15.70
2023-03-16T00:58:43.519Z,15.40
2023-03-16T01:01:20.532Z,15.63
2023-03-16T01:03:49.482Z,15.60
2023-03-16T01:06:20.215Z,12.77
2023-03-16T01:08:49.081Z,14.73
2023-03-16T01:11:22.962Z,13.47
2023-03-16T01:13:54.345Z,14.40
2023-03-16T01:16:24.707Z,15.87
2023-03-16T01:18:53.705Z,13.00
2023-03-16T01:21:21.954Z,17.00
2023-03-16T01:23:50.972Z,14.37
2023-03-16T01:26:20.554Z,13.73
2023-03-16T01:28:49.552Z,14.30
2023-03-16T01:31:17.212Z,12.93
2023-03-16T01:33:45.062Z,14.73
2023-03-16T01:36:18.246Z,14.90
2023-03-16T01:38:54.206Z,15.17
2023-03-16T01:41:26.034Z,13.70
2023-03-16T01:43:58.536Z,20.73
2023-03-16T01:46:29.175Z,11.57
2023-03-16T01:49:12.794Z,12.97
2023-03-16T01:52:14.873Z,11.83
2023-03-16T01:54:50.569Z,14.90
2023-03-16T01:57:25.067Z,12.47
2023-03-16T02:00:08.161Z,14.13
2023-03-16T02:02:45.013Z,14.73
2023-03-16T02:05:33.434Z,12.77
2023-03-16T02:08:03.612Z,15.27
2023-03-16T02:10:32.531Z,12.83
2023-03-16T02:13:00.888Z,12.60
2023-03-16T02:15:31.223Z,12.63
2023-03-16T02:18:00.365Z,13.20
2023-03-16T02:20:57.368Z,15.17
2023-03-16T02:23:25.809Z,14.27
2023-03-16T02:26:32.732Z,12.83
2023-03-16T02:29:29.862Z,13.87
2023-03-16T02:32:00.148Z,13.10
2023-03-16T02:34:28.861Z,10.90
2023-03-16T02:36:57.674Z,12.93
2023-03-16T02:39:26.563Z,11.27
2023-03-16T02:41:54.086Z,17.77
2023-03-16T02:44:33.819Z,14.37
2023-03-16T02:47:07.425Z,12.17
2023-03-16T02:49:38.585Z,12.67
2023-03-16T02:52:07.580Z,12.50
2023-03-16T02:54:35.257Z,10.20
2023-03-16T02:57:02.938Z,12.77
2023-03-16T02:59:32.372Z,15.20
2023-03-16T03:02:00.294Z,11.73
2023-03-16T03:04:27.901Z,11.63
2023-03-16T03:06:55.492Z,15.77
2023-03-16T03:09:22.975Z,12.23
2023-03-16T03:11:54.237Z,12.57
2023-03-16T03:14:22.804Z,16.77
2023-03-16T03:16:52.975Z,12.13
2023-03-16T03:19:20.604Z,10.80
2023-03-16T03:21:48.074Z,14.63
2023-03-16T03:24:15.618Z,15.67
2023-03-16T03:26:45.073Z,13.17
2023-03-16T03:29:18.908Z,12.00
2023-03-16T03:31:46.552Z,12.37
2023-03-16T03:34:14.638Z,13.47
2023-03-16T03:36:42.375Z,20.70
2023-03-16T03:39:09.922Z,12.57
2023-03-16T03:41:38.308Z,13.13
2023-03-16T03:44:07.480Z,12.10
2023-03-16T03:46:36.754Z,14.23
2023-03-16T03:49:05.445Z,13.67
2023-03-16T03:51:35.532Z,19.00
2023-03-16T03:54:07.484Z,12.43
2023-03-16T03:56:35.354Z,15.07
2023-03-16T03:59:03.132Z,15.60
2023-03-16T04:01:50.667Z,19.30
2023-03-16T04:04:18.208Z,11.00
2023-03-16T04:06:46.288Z,14.90
2023-03-16T04:09:14.519Z,12.33
2023-03-16T04:11:42.065Z,15.27
2023-03-16T04:14:09.909Z,14.13
2023-03-16T04:16:39.792Z,15.33
2023-03-16T04:19:07.798Z,12.97
2023-03-16T04:21:36.525Z,11.47
2023-03-16T04:24:05.369Z,14.00
2023-03-16T04:26:36.329Z,10.23
2023-03-16T04:29:05.144Z,11.83
2023-03-16T04:31:33.984Z,13.00
2023-03-16T04:34:02.550Z,11.10
2023-03-16T04:36:30.575Z,13.37
2023-03-16T04:38:58.199Z,14.60
2023-03-16T04:41:26.552Z,15.83
2023-03-16T04:43:59.667Z,16.27
2023-03-16T04:46:29.745Z,13.57
2023-03-16T04:49:00.146Z,12.50
2023-03-16T04:51:30.080Z,15.10
2023-03-16T04:54:08.326Z,13.77
2023-03-16T04:56:41.882Z,18.27
2023-03-16T04:59:18.016Z,14.30
2023-03-16T05:01:51.420Z,11.43
2023-03-16T05:04:19.960Z,14.80
2023-03-16T05:06:49.153Z,12.07
2023-03-16T05:09:18.316Z,11.57
2023-03-16T05:11:45.846Z,14.90
2023-03-16T05:14:14.044Z,16.47
2023-03-16T05:16:55.396Z,15.80
2023-03-16T05:19:25.204Z,15.80
2023-03-16T05:21:52.804Z,11.93
2023-03-16T05:24:20.342Z,12.17
2023-03-16T05:26:47.867Z,11.77
2023-03-16T05:29:17.391Z,12.53
2023-03-16T05:31:49.243Z,11.10
2023-03-16T05:34:21.241Z,13.40
2023-03-16T05:36:50.090Z,10.07
2023-03-16T05:39:18.735Z,12.90
2023-03-16T05:41:48.832Z,16.23
2023-03-16T05:44:30.749Z,12.27
2023-03-16T05:47:24.844Z,11.80
2023-03-16T05:49:57.133Z,11.57
2023-03-16T05:52:39.785Z,10.90
2023-03-16T05:55:17.415Z,13.93
2023-03-16T05:57:49.244Z,12.47
2023-03-16T06:00:19.882Z,14.00
2023-03-16T06:02:57.093Z,16.97
2023-03-16T06:05:30.529Z,15.57
2023-03-16T06:07:58.238Z,12.27
2023-03-16T06:10:26.971Z,16.47
2023-03-16T06:12:54.671Z,13.27
2023-03-16T06:15:25.188Z,12.00
2023-03-16T06:17:53.262Z,14.97
2023-03-16T06:20:20.869Z,12.27
2023-03-16T06:22:48.535Z,11.43
2023-03-16T06:25:16.643Z,16.17
2023-03-16T06:27:46.648Z,12.33
2023-03-16T06:30:17.614Z,17.07
2023-03-16T06:32:45.928Z,12.47
2023-03-16T06:35:15.163Z,15.17
2023-03-16T06:37:49.679Z,11.57
2023-03-16T06:40:37.487Z,11.60
2023-03-16T06:43:06.549Z,12.13
2023-03-16T06:45:34.654Z,12.53
2023-03-16T06:48:03.588Z,11.63
2023-03-16T06:50:31.916Z,11.57
2023-03-16T06:52:59.589Z,11.97
2023-03-16T06:55:27.157Z,12.83
2023-03-16T06:57:56.006Z,12.33
2023-03-16T07:00:25.189Z,10.70
2023-03-16T07:02:52.649Z,12.17
2023-03-16T07:05:21.381Z,10.93
2023-03-16T07:07:49.750Z,12.00
2023-03-16T07:10:18.484Z,16.33
2023-03-16T07:12:46.553Z,11.27
2023-03-16T07:15:14.544Z,9.90
2023-03-16T07:17:42.774Z,9.40
2023-03-16T07:20:12.961Z,9.57
2023-03-16T07:22:41.959Z,12.23
2023-03-16T07:25:12.306Z,10.57
2023-03-16T07:27:46.699Z,13.50
2023-03-16T07:30:18.859Z,18.67
2023-03-16T07:32:50.011Z,9.43
2023-03-16T07:35:18.800Z,11.00
2023-03-16T07:37:46.412Z,12.43
2023-03-16T07:40:14.639Z,12.00
2023-03-16T07:42:42.697Z,10.53
2023-03-16T07:45:14.526Z,10.60
2023-03-16T07:47:43.901Z,10.13
2023-03-16T07:50:22.517Z,8.23
2023-03-16T07:52:50.424Z,14.53
2023-03-16T07:55:18.284Z,10.03
2023-03-16T07:57:50.174Z,9.87
2023-03-16T08:00:24.990Z,10.90
2023-03-16T08:02:53.894Z,10.93
2023-03-16T08:05:21.621Z,10.87
2023-03-16T08:07:54.415Z,11.43
2023-03-16T08:10:24.987Z,10.87
2023-03-16T08:13:00.642Z,12.90
2023-03-16T08:15:28.257Z,13.90
2023-03-16T08:18:04.174Z,10.73
2023-03-16T08:20:32.285Z,12.43
2023-03-16T08:23:00.367Z,11.30
2023-03-16T08:25:34.485Z,11.20
2023-03-16T08:28:12.777Z,14.50
2023-03-16T08:30:49.043Z,10.40
2023-03-16T08:33:28.014Z,10.17
2023-03-16T08:35:56.283Z,11.63
2023-03-16T08:38:24.099Z,11.57
2023-03-16T08:40:52.698Z,10.27
2023-03-16T08:43:22.631Z,13.23
2023-03-16T08:45:50.942Z,12.17
2023-03-16T08:48:22.389Z,12.63
2023-03-16T08:50:51.955Z,11.20
2023-03-16T08:53:19.762Z,12.27
2023-03-16T08:55:48.520Z,16.07
2023-03-16T08:58:16.154Z,10.90
2023-03-16T09:00:46.465Z,14.30
2023-03-16T09:03:14.436Z,19.50
2023-03-16T09:05:42.483Z,11.43
2023-03-16T09:08:12.808Z,15.80
2023-03-16T09:10:40.559Z,16.20
2023-03-16T09:13:08.722Z,10.93
2023-03-16T09:15:36.607Z,12.60
2023-03-16T09:18:04.266Z,10.23
2023-03-16T09:20:33.334Z,12.27
2023-03-16T09:23:00.989Z,12.37
2023-03-16T09:25:28.764Z,13.10
2023-03-16T09:27:56.462Z,10.77
2023-03-16T09:30:24.137Z,9.93
2023-03-16T09:32:52.120Z,12.90
2023-03-16T09:35:19.748Z,12.03
2023-03-16T09:38:04.711Z,12.80
2023-03-16T09:40:34.112Z,11.80
2023-03-16T09:43:10.466Z,12.93
2023-03-16T09:45:56.787Z,13.50
2023-03-16T09:48:26.653Z,11.53
2023-03-16T09:50:55.800Z,10.63
2023-03-16T09:53:38.267Z,13.37
2023-03-16T09:56:20.448Z,10.80
2023-03-16T09:58:48.117Z,12.67
2023-03-16T10:01:48.994Z,9.83
2023-03-16T10:04:20.748Z,13.43
2023-03-16T10:07:18.586Z,9.83
2023-03-16T10:09:55.014Z,13.43
2023-03-16T10:12:30.955Z,12.23
2023-03-16T10:15:07.706Z,11.50
2023-03-16T10:17:35.623Z,13.18
2023-03-16T10:20:11.203Z,12.40
2023-03-16T10:22:42.521Z,11.07
2023-03-16T10:25:35.691Z,14.87
2023-03-16T10:28:03.304Z,11.40
2023-03-16T10:30:36.354Z,10.20
2023-03-16T10:33:32.565Z,12.33
2023-03-16T10:36:12.728Z,10.53
2023-03-16T10:38:40.272Z,10.37
2023-03-16T10:41:20.684Z,10.77
2023-03-16T10:44:28.560Z,14.63
2023-03-16T10:47:04.912Z,11.83
2023-03-16T10:49:47.270Z,12.83
2023-03-16T10:52:47.058Z,11.50
2023-03-16T10:55:43.755Z,10.30
2023-03-16T10:58:22.956Z,10.80
2023-03-16T11:00:51.963Z,14.43
2023-03-16T11:03:29.023Z,10.93
2023-03-16T11:06:02.390Z,14.23
2023-03-16T11:08:39.058Z,10.83
2023-03-16T11:11:14.783Z,14.20
2023-03-16T11:13:49.209Z,12.63
2023-03-16T11:16:37.249Z,12.20
2023-03-16T11:19:24.315Z,12.17
2023-03-16T11:22:08.674Z,12.33
2023-03-16T11:25:07.323Z,11.60
2023-03-16T11:27:48.000Z,11.80
2023-03-16T11:30:29.311Z,10.73
2023-03-16T11:33:00.684Z,12.40
2023-03-16T11:36:06.076Z,14.17
2023-03-16T11:38:50.468Z,13.53
2023-03-16T11:41:54.665Z,14.23
2023-03-16T11:45:01.606Z,13.63
2023-03-16T11:47:48.769Z,14.27
2023-03-16T11:50:25.474Z,14.40
2023-03-16T11:53:13.759Z,16.13
2023-03-16T11:55:44.085Z,14.73
2023-03-16T11:58:42.581Z,16.27
2023-03-16T12:01:47.752Z,15.32
2023-03-16T12:04:33.514Z,14.80
2023-03-16T12:07:01.504Z,16.10
2023-03-16T12:09:53.908Z,19.30
2023-03-16T12:12:24.225Z,21.23
2023-03-16T12:15:11.306Z,19.97
2023-03-16T12:17:40.971Z,20.43
2023-03-16T12:20:23.520Z,19.30
2023-03-16T12:23:02.459Z,16.70
2023-03-16T12:25:35.006Z,23.00
2023-03-16T12:28:07.775Z,17.97
2023-03-16T12:30:49.145Z,24.73
2023-03-16T12:33:22.312Z,19.93
2023-03-16T12:36:22.711Z,20.83
2023-03-16T12:39:04.002Z,21.07
2023-03-16T12:41:42.914Z,18.13
2023-03-16T12:44:15.805Z,24.00
2023-03-16T12:46:53.650Z,25.33
2023-03-16T12:49:21.361Z,21.77
2023-03-16T12:52:02.876Z,24.27
2023-03-16T12:54:30.686Z,24.03
2023-03-16T12:57:07.343Z,21.07
2023-03-16T13:03:21.561Z,22.37
2023-03-16T13:06:07.236Z,22.50
2023-03-16T13:08:47.828Z,18.07
2023-03-16T13:11:16.979Z,22.33
2023-03-16T13:14:03.072Z,21.67
2023-03-16T13:17:57.806Z,29.53
2023-03-16T13:20:58.891Z,22.60
2023-03-16T13:23:49.811Z,23.40
2023-03-16T13:27:19.299Z,23.83
2023-03-16T13:34:00.672Z,19.77
2023-03-16T13:37:09.575Z,24.43
2023-03-16T13:40:07.327Z,24.80
2023-03-16T13:43:47.008Z,25.40
2023-03-16T13:47:31.289Z,23.97
2023-03-16T13:53:59.464Z,23.93
2023-03-16T13:58:02.851Z,25.43
2023-03-16T14:01:41.076Z,26.40
2023-03-16T14:05:07.100Z,26.70
2023-03-16T14:08:05.143Z,26.37
2023-03-16T14:11:16.230Z,26.80
2023-03-16T14:14:30.315Z,27.83
2023-03-16T14:17:35.119Z,24.03
2023-03-16T14:20:08.237Z,28.33
2023-03-16T14:22:38.196Z,24.87
2023-03-16T14:25:06.771Z,27.40
2023-03-16T14:27:40.028Z,25.60
2023-03-16T14:30:27.987Z,27.63
2023-03-16T14:35:31.303Z,25.57
2023-03-16T14:38:19.873Z,25.20
2023-03-16T14:40:56.205Z,23.80
2023-03-16T14:43:30.191Z,27.70
2023-03-16T14:45:59.146Z,26.43
2023-03-16T14:48:28.436Z,27.13
2023-03-16T14:51:11.201Z,25.47
2023-03-16T14:53:40.752Z,26.20
2023-03-16T14:56:13.716Z,26.67
2023-03-16T14:58:41.935Z,24.73
2023-03-16T15:01:43.612Z,25.67
2023-03-16T15:06:03.321Z,21.07
2023-03-16T15:08:51.826Z,19.00
2023-03-16T15:11:29.647Z,21.00
2023-03-16T15:14:48.193Z,19.87
2023-03-16T15:17:53.975Z,19.57
2023-03-16T15:20:25.819Z,20.07
2023-03-16T15:22:53.761Z,15.90
2023-03-16T15:29:27.194Z,21.23
2023-03-16T15:31:55.779Z,13.70
2023-03-16T15:34:23.678Z,12.33
2023-03-16T15:36:51.893Z,14.53
2023-03-16T15:39:24.893Z,13.37
2023-03-16T15:41:52.926Z,11.73
2023-03-16T15:44:20.569Z,13.03
2023-03-16T15:46:48.860Z,9.33
2023-03-16T15:49:17.077Z,9.97
2023-03-16T15:51:44.825Z,10.23
2023-03-16T15:54:12.540Z,9.57
2023-03-16T15:56:53.767Z,8.50
2023-03-16T15:59:23.811Z,9.37
2023-03-16T16:01:51.890Z,9.70
2023-03-16T16:04:23.225Z,9.23
2023-03-16T16:06:54.595Z,11.57
2023-03-16T16:09:22.672Z,10.67
2023-03-16T16:11:50.626Z,10.90
2023-03-16T16:14:23.817Z,15.67
2023-03-16T16:16:52.182Z,9.63
2023-03-16T16:19:19.785Z,9.33
2023-03-16T16:21:51.347Z,11.70
2023-03-16T16:24:19.420Z,11.60
2023-03-16T16:26:55.264Z,12.07
2023-03-16T16:29:27.608Z,14.90
2023-03-16T16:31:55.620Z,11.07
2023-03-16T16:34:25.221Z,10.53
2023-03-16T16:36:57.349Z,11.13
2023-03-16T16:39:25.568Z,11.80
2023-03-16T16:41:55.377Z,11.13
2023-03-16T16:44:27.474Z,10.90
2023-03-16T16:46:55.961Z,12.47
2023-03-16T16:49:25.106Z,13.27
2023-03-16T16:51:54.152Z,13.00
2023-03-16T16:54:24.688Z,14.67
2023-03-16T16:56:56.541Z,14.43
2023-03-16T16:59:28.625Z,14.93
2023-03-16T17:01:57.536Z,14.80
2023-03-16T17:04:27.793Z,14.50
2023-03-16T17:07:02.270Z,14.60
2023-03-16T17:09:30.726Z,16.73
2023-03-16T17:12:01.166Z,14.23
2023-03-16T17:14:31.317Z,17.40
2023-03-16T17:17:03.025Z,15.53
2023-03-16T17:19:30.847Z,13.20
2023-03-16T17:21:58.693Z,16.77
2023-03-16T17:24:26.711Z,14.63
2023-03-16T17:26:57.739Z,17.67
2023-03-16T17:29:30.129Z,17.00
2023-03-16T17:32:03.823Z,15.83
2023-03-16T17:34:36.583Z,17.77
2023-03-16T17:37:04.300Z,16.80
2023-03-16T17:39:34.159Z,18.43
2023-03-16T17:42:05.147Z,16.67
2023-03-16T17:45:00.023Z,15.87
2023-03-16T17:47:31.527Z,16.83
2023-03-16T17:49:59.225Z,16.77
2023-03-16T17:52:29.548Z,17.23
2023-03-16T17:54:57.554Z,16.27
2023-03-16T17:57:33.630Z,19.17
2023-03-16T18:00:02.781Z,16.20
2023-03-16T18:03:10.870Z,17.20
2023-03-16T18:05:38.737Z,16.47
2023-03-16T18:08:25.970Z,16.27
2023-03-16T18:10:59.612Z,16.92
2023-03-16T18:13:34.696Z,16.30
2023-03-16T18:16:05.255Z,14.90
2023-03-16T18:18:37.068Z,14.43
2023-03-16T18:21:04.805Z,13.23
2023-03-16T18:23:35.832Z,14.40
2023-03-16T18:26:04.109Z,15.90
2023-03-16T18:28:32.820Z,15.07
2023-03-16T18:31:02.388Z,14.73
2023-03-16T18:33:33.826Z,13.17
2023-03-16T18:36:17.725Z,15.07
2023-03-16T18:38:48.581Z,14.70
2023-03-16T18:41:23.153Z,15.80
2023-03-16T18:43:54.171Z,14.43
2023-03-16T18:46:21.809Z,16.03
2023-03-16T18:48:50.696Z,15.20
2023-03-16T18:51:18.628Z,16.77
2023-03-16T18:53:46.883Z,16.60
2023-03-16T18:56:22.857Z,15.93
2023-03-16T18:58:52.738Z,14.50
2023-03-16T19:01:29.688Z,13.03
2023-03-16T19:03:59.678Z,13.82
2023-03-16T19:06:31.388Z,13.43
2023-03-16T19:09:24.204Z,12.07
2023-03-16T19:11:52.861Z,9.53
2023-03-16T19:14:30.785Z,10.27
2023-03-16T19:16:58.809Z,9.10
2023-03-16T19:19:27.290Z,8.07
2023-03-16T19:22:04.923Z,9.13
2023-03-16T19:27:06.337Z,7.83
2023-03-16T19:29:35.397Z,7.13
2023-03-16T19:32:03.249Z,6.33
2023-03-16T19:34:30.839Z,5.60
2023-03-16T19:36:58.375Z,6.17
2023-03-16T19:39:26.315Z,5.47
2023-03-16T19:41:57.994Z,4.83
2023-03-16T19:44:27.781Z,5.03
2023-03-16T19:46:55.783Z,4.80
2023-03-16T19:49:26.558Z,5.40
2023-03-16T19:51:55.890Z,4.43
2023-03-16T19:54:35.371Z,5.07
2023-03-16T19:57:11.514Z,4.03
2023-03-16T19:59:39.134Z,7.07
2023-03-16T20:02:25.119Z,4.30
2023-03-16T20:04:54.203Z,4.03
2023-03-16T20:07:22.476Z,4.40
2023-03-16T20:09:50.916Z,3.40
2023-03-16T20:12:27.845Z,2.93
2023-03-16T20:14:57.227Z,3.10
2023-03-16T20:17:28.426Z,2.83
2023-03-16T20:19:57.222Z,3.20
2023-03-16T20:22:27.943Z,2.63
2023-03-16T20:24:58.104Z,2.87
2023-03-16T20:27:27.855Z,3.20
2023-03-16T20:29:55.831Z,3.30
2023-03-16T20:32:35.215Z,4.47
2023-03-16T20:35:02.911Z,2.87
2023-03-16T20:37:31.427Z,3.60
2023-03-16T20:40:00.225Z,4.07
2023-03-16T20:42:33.959Z,3.30
2023-03-16T20:45:02.121Z,2.80
2023-03-16T20:47:30.764Z,2.77
2023-03-16T20:49:58.388Z,4.03
2023-03-16T20:52:30.657Z,3.47
2023-03-16T20:54:58.867Z,3.37
2023-03-16T20:57:29.191Z,3.17
2023-03-16T20:59:57.174Z,3.43
2023-03-16T21:02:28.699Z,5.33
2023-03-16T21:04:59.470Z,4.17
2023-03-16T21:07:30.939Z,3.30
2023-03-16T21:09:58.775Z,3.80
2023-03-16T21:12:32.603Z,4.87
2023-03-16T21:15:05.045Z,3.80
2023-03-16T21:17:34.664Z,5.20
2023-03-16T21:20:02.083Z,7.20
2023-03-16T21:22:35.093Z,9.00
2023-03-16T21:25:05.208Z,4.57
2023-03-16T21:27:35.145Z,5.63
2023-03-16T21:30:32.980Z,4.93
2023-03-16T21:33:02.099Z,6.40
2023-03-16T21:35:35.057Z,5.30
2023-03-16T21:38:15.984Z,7.97
2023-03-16T21:40:45.616Z,6.70
2023-03-16T21:43:14.046Z,5.63
2023-03-16T21:45:42.717Z,5.00
2023-03-16T21:48:24.227Z,6.97
2023-03-16T21:50:54.116Z,5.30
2023-03-16T21:53:23.248Z,6.67
2023-03-16T21:55:52.132Z,5.27
2023-03-16T21:58:20.416Z,4.87
2023-03-16T22:00:49.519Z,5.60
2023-03-16T22:03:32.953Z,5.00
2023-03-16T22:06:05.677Z,5.45
2023-03-16T22:08:34.583Z,5.27
2023-03-16T22:11:03.075Z,4.70
2023-03-16T22:13:30.528Z,5.90
2023-03-16T22:15:58.689Z,6.10
2023-03-16T22:18:28.908Z,5.67
2023-03-16T22:21:02.722Z,6.10
2023-03-16T22:23:36.505Z,4.30
2023-03-16T22:26:06.305Z,6.27
2023-03-16T22:28:34.618Z,5.17
2023-03-16T22:31:04.345Z,4.97
2023-03-16T22:33:35.801Z,6.07
2023-03-16T22:36:16.935Z,5.33
2023-03-16T22:38:46.270Z,4.93
2023-03-16T22:41:17.795Z,4.80
2023-03-16T22:43:46.174Z,4.30
2023-03-16T22:46:26.223Z,4.63
2023-03-16T22:48:57.982Z,4.53
2023-03-16T22:51:37.820Z,5.33
2023-03-16T22:54:09.680Z,6.00
2023-03-16T22:56:38.715Z,5.70
2023-03-16T22:59:12.799Z,3.67
2023-03-16T23:01:43.691Z,6.40
2023-03-16T23:04:32.571Z,4.07
2023-03-16T23:07:00.334Z,3.30
2023-03-16T23:09:29.045Z,3.33
2023-03-16T23:11:57.262Z,4.17
2023-03-16T23:14:37.098Z,4.60
2023-03-16T23:17:06.009Z,3.90
2023-03-16T23:19:34.917Z,4.70
2023-03-16T23:22:05.203Z,3.90
2023-03-16T23:24:34.006Z,3.43
2023-03-16T23:27:02.152Z,3.97
2023-03-16T23:29:30.009Z,4.17
2023-03-16T23:31:58.000Z,5.30
2023-03-16T23:34:26.325Z,6.63
2023-03-16T23:36:54.039Z,4.50
2023-03-16T23:39:21.567Z,6.40
2023-03-16T23:41:50.320Z,4.27
2023-03-16T23:44:21.458Z,4.80
2023-03-16T23:46:49.411Z,5.37
2023-03-16T23:49:26.653Z,4.47
2023-03-16T23:51:57.101Z,4.57
2023-03-16T23:54:27.623Z,3.97
2023-03-16T23:56:55.341Z,4.00
2023-03-16T23:59:24.486Z,3.63
